createdAt,value
2023-05-25T00:00:11.175Z,87.29
2023-05-25T00:02:39.554Z,87.64
2023-05-25T00:05:09.156Z,88.19
2023-05-25T00:07:35.773Z,88.55
2023-05-25T00:10:02.359Z,88.75
2023-05-25T00:12:28.854Z,88.83
2023-05-25T00:14:55.395Z,88.98
2023-05-25T00:17:21.908Z,89.29
2023-05-25T00:19:48.672Z,89.54
2023-05-25T00:22:15.403Z,90.11
2023-05-25T00:24:41.890Z,90.71
2023-05-25T00:27:08.733Z,90.84
2023-05-25T00:29:36.244Z,91.21
2023-05-25T00:32:03.313Z,91.41
2023-05-25T00:34:29.735Z,91.44
2023-05-25T00:36:56.296Z,91.84
2023-05-25T00:39:22.971Z,92.42
2023-05-25T00:41:49.999Z,92.91
2023-05-25T00:44:21.298Z,93.03
2023-05-25T00:46:50.219Z,93.17
2023-05-25T00:49:19.121Z,92.99
2023-05-25T00:51:47.622Z,93.50
2023-05-25T00:54:16.023Z,93.86
2023-05-25T00:57:04.130Z,94.04
2023-05-25T00:59:40.756Z,94.19
2023-05-25T01:02:10.171Z,94.27
2023-05-25T01:04:42.244Z,94.04
2023-05-25T01:07:11.252Z,94.10
2023-05-25T01:09:40.732Z,94.20
2023-05-25T01:12:09.119Z,94.41
2023-05-25T01:14:39.676Z,94.46
2023-05-25T01:17:06.821Z,94.30
2023-05-25T01:19:35.793Z,94.02
2023-05-25T01:22:13.341Z,93.97
2023-05-25T01:24:46.692Z,93.85
2023-05-25T01:27:32.508Z,93.78
2023-05-25T01:29:59.969Z,93.70
2023-05-25T01:32:27.068Z,93.62
2023-05-25T01:34:56.652Z,93.63
2023-05-25T01:37:26.251Z,93.60
2023-05-25T01:39:52.768Z,93.48
2023-05-25T01:42:19.181Z,93.72
2023-05-25T01:44:45.767Z,93.52
2023-05-25T01:47:41.185Z,93.67
2023-05-25T01:50:24.026Z,93.65
2023-05-25T01:53:19.318Z,93.50
2023-05-25T01:56:08.438Z,93.22
2023-05-25T01:58:39.901Z,93.30
2023-05-25T02:01:09.541Z,93.19
2023-05-25T02:03:38.018Z,93.43
2023-05-25T02:06:04.731Z,93.43
2023-05-25T02:08:34.700Z,93.23
2023-05-25T02:11:01.518Z,93.68
2023-05-25T02:13:28.445Z,93.77
2023-05-25T02:15:55.063Z,93.70
2023-05-25T02:18:22.201Z,94.06
2023-05-25T02:20:48.830Z,94.08
2023-05-25T02:23:15.441Z,94.37
2023-05-25T02:25:42.750Z,94.59
2023-05-25T02:28:09.627Z,94.49
2023-05-25T02:30:36.263Z,94.68
2023-05-25T02:33:02.784Z,94.63
2023-05-25T02:35:29.418Z,95.01
2023-05-25T02:37:56.077Z,95.06
2023-05-25T02:40:22.676Z,95.46
2023-05-25T02:42:49.151Z,95.48
2023-05-25T02:45:16.843Z,96.13
2023-05-25T02:47:43.386Z,96.23
2023-05-25T02:50:10.148Z,96.37
2023-05-25T02:52:42.565Z,96.66
2023-05-25T02:55:13.589Z,97.20
2023-05-25T02:57:42.757Z,97.48
2023-05-25T03:00:12.364Z,97.65
2023-05-25T03:02:39.367Z,97.95
2023-05-25T03:05:06.433Z,98.19
2023-05-25T03:07:34.404Z,98.28
2023-05-25T03:10:00.913Z,98.55
2023-05-25T03:12:27.392Z,99.09
2023-05-25T03:14:53.948Z,99.39
2023-05-25T03:17:22.205Z,99.65
2023-05-25T03:19:48.780Z,99.83
2023-05-25T03:22:15.588Z,99.98
2023-05-25T03:24:44.934Z,100.00
2023-05-25T03:27:11.930Z,100.00
2023-05-25T03:29:38.710Z,100.00
2023-05-25T03:32:05.938Z,100.00
2023-05-25T03:34:35.239Z,100.00
2023-05-25T03:37:03.441Z,100.00
2023-05-25T03:39:30.380Z,99.88
2023-05-25T03:41:58.067Z,100.00
2023-05-25T03:44:25.232Z,99.81
2023-05-25T03:46:51.927Z,99.76
2023-05-25T03:49:18.465Z,99.55
2023-05-25T03:51:45.128Z,99.92
2023-05-25T03:54:13.372Z,99.89
2023-05-25T03:56:39.809Z,100.00
2023-05-25T03:59:06.441Z,100.00
2023-05-25T04:01:33.063Z,100.00
2023-05-25T04:04:00.149Z,100.00
2023-05-25T04:06:26.706Z,100.00
2023-05-25T04:08:53.172Z,100.00
2023-05-25T04:11:20.844Z,100.00
2023-05-25T04:13:47.285Z,100.00
2023-05-25T04:16:14.535Z,100.00
2023-05-25T04:18:41.545Z,100.00
2023-05-25T04:21:08.021Z,100.00
2023-05-25T04:23:34.532Z,100.00
2023-05-25T04:26:01.534Z,100.00
2023-05-25T04:28:28.290Z,100.00
2023-05-25T04:31:09.584Z,100.00
2023-05-25T04:33:49.853Z,100.00
2023-05-25T04:36:28.124Z,100.00
2023-05-25T04:38:55.315Z,100.00
2023-05-25T04:41:23.326Z,100.00
2023-05-25T04:44:06.918Z,100.00
2023-05-25T04:46:38.890Z,100.00
2023-05-25T04:49:08.196Z,100.00
2023-05-25T04:51:35.805Z,100.00
2023-05-25T04:54:02.824Z,99.88
2023-05-25T04:56:29.563Z,99.89
2023-05-25T04:58:57.044Z,99.83
2023-05-25T05:01:24.296Z,100.00
2023-05-25T05:03:58.970Z,100.00
2023-05-25T05:06:25.734Z,99.99
2023-05-25T05:08:52.355Z,99.94
2023-05-25T05:11:18.799Z,99.85
2023-05-25T05:13:45.440Z,99.58
2023-05-25T05:16:11.913Z,99.36
2023-05-25T05:18:39.533Z,98.88
2023-05-25T05:21:06.425Z,99.22
2023-05-25T05:23:34.730Z,98.96
2023-05-25T05:26:01.393Z,99.04
2023-05-25T05:28:29.853Z,98.84
2023-05-25T05:30:57.739Z,98.35
2023-05-25T05:33:25.171Z,98.30
2023-05-25T05:35:54.591Z,98.26
2023-05-25T05:38:22.289Z,98.02
2023-05-25T05:40:48.798Z,97.82
2023-05-25T05:43:20.276Z,97.59
2023-05-25T05:45:47.441Z,97.44
2023-05-25T05:48:14.326Z,97.11
2023-05-25T05:50:42.209Z,97.29
2023-05-25T05:53:11.044Z,97.77
2023-05-25T05:55:37.727Z,97.73
2023-05-25T05:58:04.370Z,98.03
2023-05-25T06:00:32.367Z,98.33
2023-05-25T06:03:00.209Z,98.06
2023-05-25T06:05:28.622Z,97.88
2023-05-25T06:07:56.078Z,97.76
2023-05-25T06:10:22.822Z,97.56
2023-05-25T06:12:50.694Z,97.45
2023-05-25T06:15:17.887Z,97.46
2023-05-25T06:17:46.615Z,96.93
2023-05-25T06:20:14.992Z,96.54
2023-05-25T06:22:42.205Z,96.31
2023-05-25T06:25:10.326Z,95.88
2023-05-25T06:27:37.704Z,94.85
2023-05-25T06:30:04.538Z,94.35
2023-05-25T06:32:31.063Z,94.10
2023-05-25T06:34:58.053Z,93.94
2023-05-25T06:37:24.547Z,93.60
2023-05-25T06:39:51.018Z,93.13
2023-05-25T06:42:18.273Z,93.05
2023-05-25T06:44:52.514Z,92.71
2023-05-25T06:47:19.545Z,92.81
2023-05-25T06:49:47.005Z,92.56
2023-05-25T06:52:13.475Z,92.08
2023-05-25T06:54:40.007Z,92.10
2023-05-25T06:57:06.674Z,91.31
2023-05-25T06:59:33.191Z,91.21
2023-05-25T07:02:00.299Z,91.69
2023-05-25T07:04:28.337Z,91.05
2023-05-25T07:06:54.823Z,90.70
2023-05-25T07:09:22.150Z,90.57
2023-05-25T07:11:48.861Z,90.23
2023-05-25T07:14:15.460Z,89.91
2023-05-25T07:16:42.015Z,89.98
2023-05-25T07:19:08.945Z,90.00
2023-05-25T07:21:36.465Z,89.62
2023-05-25T07:24:03.754Z,89.25
2023-05-25T07:26:32.082Z,89.16
2023-05-25T07:28:58.638Z,89.00
2023-05-25T07:31:25.131Z,88.60
2023-05-25T07:33:53.334Z,88.45
2023-05-25T07:36:19.814Z,88.47
2023-05-25T07:38:47.297Z,88.27
2023-05-25T07:41:13.807Z,88.15
2023-05-25T07:43:40.409Z,88.10
2023-05-25T07:46:06.855Z,88.02
2023-05-25T07:48:33.286Z,87.73
2023-05-25T07:50:59.702Z,87.74
2023-05-25T07:53:26.419Z,87.35
2023-05-25T07:55:52.842Z,86.81
2023-05-25T07:58:19.453Z,85.55
2023-05-25T08:00:45.892Z,85.27
2023-05-25T08:03:12.442Z,85.00
2023-05-25T08:05:39.917Z,84.68
2023-05-25T08:08:06.389Z,84.58
2023-05-25T08:10:32.941Z,83.35
2023-05-25T08:12:59.677Z,82.00
2023-05-25T08:15:26.578Z,82.26
2023-05-25T08:17:53.152Z,83.01
2023-05-25T08:20:19.668Z,82.08
2023-05-25T08:22:46.210Z,81.51
2023-05-25T08:25:12.853Z,81.26
2023-05-25T08:27:39.378Z,80.58
2023-05-25T08:30:06.528Z,80.55
2023-05-25T08:32:33.298Z,80.41
2023-05-25T08:34:59.881Z,80.19
2023-05-25T08:37:26.663Z,79.84
2023-05-25T08:39:53.580Z,79.56
2023-05-25T08:42:20.475Z,79.66
2023-05-25T08:44:47.196Z,78.82
2023-05-25T08:47:15.282Z,78.49
2023-05-25T08:49:44.509Z,78.39
2023-05-25T08:52:13.979Z,78.19
2023-05-25T08:54:44.155Z,77.63
2023-05-25T08:57:17.154Z,77.49
2023-05-25T09:00:13.113Z,77.10
2023-05-25T09:02:47.041Z,76.04
2023-05-25T09:05:13.667Z,75.68
2023-05-25T09:07:42.790Z,76.00
2023-05-25T09:10:11.149Z,75.78
2023-05-25T09:12:38.777Z,75.52
2023-05-25T09:15:06.083Z,74.93
2023-05-25T09:17:33.216Z,74.93
2023-05-25T09:20:01.064Z,73.85
2023-05-25T09:22:27.662Z,71.34
2023-05-25T09:24:54.971Z,71.53
2023-05-25T09:27:23.241Z,71.61
2023-05-25T09:29:50.973Z,70.85
2023-05-25T09:32:20.432Z,69.89
2023-05-25T09:34:47.607Z,70.46
2023-05-25T09:37:16.366Z,70.55
2023-05-25T09:39:44.354Z,70.86
2023-05-25T09:42:11.968Z,70.54
2023-05-25T09:44:42.709Z,70.56
2023-05-25T09:47:09.401Z,69.91
2023-05-25T09:49:36.366Z,69.29
2023-05-25T09:52:03.154Z,69.07
2023-05-25T09:54:29.653Z,68.12
2023-05-25T09:56:56.170Z,68.68
2023-05-25T09:59:23.050Z,69.29
2023-05-25T10:01:53.519Z,69.19
2023-05-25T10:04:20.903Z,68.95
2023-05-25T10:06:51.484Z,68.17
2023-05-25T10:09:19.488Z,68.12
2023-05-25T10:11:46.403Z,67.81
2023-05-25T10:14:15.915Z,66.58
2023-05-25T10:16:44.899Z,66.52
2023-05-25T10:19:37.578Z,64.69
2023-05-25T10:22:10.719Z,65.09
2023-05-25T10:24:46.304Z,65.97
2023-05-25T10:29:52.368Z,65.65
2023-05-25T10:32:19.059Z,65.77
2023-05-25T10:34:46.860Z,65.92
2023-05-25T10:37:14.439Z,65.65
2023-05-25T10:39:44.457Z,65.26
2023-05-25T10:42:12.918Z,65.50
2023-05-25T10:44:42.298Z,65.72
2023-05-25T10:47:09.781Z,65.91
2023-05-25T10:49:58.466Z,65.80
2023-05-25T10:52:29.641Z,66.12
2023-05-25T10:55:04.827Z,66.13
2023-05-25T10:57:31.449Z,65.75
2023-05-25T11:00:06.348Z,64.93
2023-05-25T11:02:55.832Z,63.51
2023-05-25T11:05:25.802Z,63.63
2023-05-25T11:07:53.800Z,63.95
2023-05-25T11:10:48.298Z,62.95
2023-05-25T11:13:32.236Z,62.65
2023-05-25T11:16:17.666Z,62.48
2023-05-25T11:18:58.845Z,63.37
2023-05-25T11:21:28.951Z,63.25
2023-05-25T11:24:12.278Z,63.40
2023-05-25T11:26:53.553Z,64.09
2023-05-25T11:29:20.808Z,62.85
2023-05-25T11:31:52.655Z,62.30
2023-05-25T11:34:21.698Z,61.82
2023-05-25T11:36:48.131Z,60.24
2023-05-25T11:39:22.376Z,60.42
2023-05-25T11:41:52.754Z,61.84
2023-05-25T11:44:31.102Z,59.61
2023-05-25T11:47:02.031Z,58.75
2023-05-25T11:49:28.990Z,58.46
2023-05-25T11:51:57.344Z,58.11
2023-05-25T11:54:28.984Z,57.26
2023-05-25T11:56:59.096Z,56.65
2023-05-25T11:59:28.744Z,55.68
2023-05-25T12:02:01.058Z,55.56
2023-05-25T12:04:29.135Z,54.40
2023-05-25T12:07:05.921Z,53.87
2023-05-25T12:09:33.142Z,53.28
2023-05-25T12:12:00.706Z,53.75
2023-05-25T12:14:27.220Z,53.86
2023-05-25T12:16:54.379Z,53.81
2023-05-25T12:19:21.773Z,52.96
2023-05-25T12:21:51.199Z,48.42
2023-05-25T12:24:18.269Z,47.87
2023-05-25T12:26:57.253Z,47.74
2023-05-25T12:29:25.113Z,47.20
2023-05-25T12:31:52.442Z,45.76
2023-05-25T12:34:20.164Z,44.90
2023-05-25T12:36:51.939Z,42.89
2023-05-25T12:39:30.536Z,40.87
2023-05-25T12:41:59.218Z,38.76
2023-05-25T12:44:33.063Z,37.13
2023-05-25T12:47:24.948Z,36.45
2023-05-25T12:49:53.574Z,34.75
2023-05-25T12:52:36.808Z,34.76
2023-05-25T12:55:18.548Z,35.52
2023-05-25T12:57:46.957Z,35.31
2023-05-25T13:00:14.020Z,34.23
2023-05-25T13:02:48.788Z,34.44
2023-05-25T13:05:24.297Z,33.56
2023-05-25T13:07:52.173Z,33.11
2023-05-25T13:10:18.912Z,32.90
2023-05-25T13:12:47.715Z,33.26
2023-05-25T13:15:17.550Z,32.32
2023-05-25T13:17:45.081Z,32.15
2023-05-25T13:20:13.756Z,32.34
2023-05-25T13:22:42.607Z,33.15
2023-05-25T13:25:10.751Z,32.99
2023-05-25T13:27:37.998Z,32.42
2023-05-25T13:30:06.223Z,31.86
2023-05-25T13:32:34.032Z,32.04
2023-05-25T13:35:01.042Z,31.82
2023-05-25T13:37:30.449Z,31.66
2023-05-25T13:39:58.168Z,32.07
2023-05-25T13:42:24.630Z,32.30
2023-05-25T13:44:51.139Z,32.70
2023-05-25T13:47:18.345Z,32.57
2023-05-25T13:49:44.851Z,33.07
2023-05-25T13:52:11.449Z,33.31
2023-05-25T13:54:37.954Z,33.11
2023-05-25T13:57:04.700Z,33.41
2023-05-25T13:59:31.190Z,34.04
2023-05-25T14:01:57.785Z,33.99
2023-05-25T14:04:24.493Z,34.00
2023-05-25T14:09:17.980Z,34.36
2023-05-25T14:11:44.388Z,33.91
2023-05-25T14:14:23.281Z,33.72
2023-05-25T14:16:56.976Z,34.13
2023-05-25T14:19:23.482Z,34.16
2023-05-25T14:22:03.900Z,33.62
2023-05-25T14:24:36.376Z,34.05
2023-05-25T14:27:03.167Z,33.49
2023-05-25T14:29:29.699Z,33.59
2023-05-25T14:31:56.378Z,33.47
2023-05-25T14:34:22.961Z,33.25
2023-05-25T14:36:49.810Z,33.60
2023-05-25T14:39:17.466Z,33.77
2023-05-25T14:41:44.223Z,33.85
2023-05-25T14:44:11.151Z,33.98
2023-05-25T14:46:38.080Z,33.87
2023-05-25T14:49:04.779Z,33.53
2023-05-25T14:51:31.242Z,33.40
2023-05-25T14:54:00.314Z,33.77
2023-05-25T14:56:27.482Z,33.96
2023-05-25T14:58:53.902Z,33.82
2023-05-25T15:01:23.694Z,33.87
2023-05-25T15:03:52.308Z,32.95
2023-05-25T15:06:19.487Z,32.59
2023-05-25T15:08:46.146Z,32.74
2023-05-25T15:11:12.604Z,32.29
2023-05-25T15:13:40.579Z,32.52
2023-05-25T15:16:11.655Z,32.82
2023-05-25T15:18:38.844Z,33.32
2023-05-25T15:21:05.563Z,33.21
2023-05-25T15:23:32.078Z,32.95
2023-05-25T15:26:03.000Z,33.43
2023-05-25T15:28:32.241Z,33.09
2023-05-25T15:31:01.708Z,33.50
2023-05-25T15:33:39.906Z,33.26
2023-05-25T15:36:14.769Z,32.88
2023-05-25T15:38:43.086Z,33.13
2023-05-25T15:41:09.575Z,32.90
2023-05-25T15:43:35.989Z,33.01
2023-05-25T15:46:02.583Z,33.23
2023-05-25T15:48:29.008Z,33.16
2023-05-25T15:50:55.460Z,33.68
2023-05-25T15:53:22.008Z,33.79
2023-05-25T15:55:48.768Z,34.24
2023-05-25T15:58:16.616Z,34.33
2023-05-25T16:00:43.076Z,34.42
2023-05-25T16:03:09.531Z,34.67
2023-05-25T16:05:36.003Z,34.73
2023-05-25T16:08:02.472Z,34.38
2023-05-25T16:10:28.890Z,34.19
2023-05-25T16:12:55.336Z,34.95
2023-05-25T16:15:23.557Z,34.73
2023-05-25T16:17:50.010Z,35.01
2023-05-25T16:20:16.493Z,35.28
2023-05-25T16:22:43.051Z,35.40
2023-05-25T16:25:09.695Z,35.21
2023-05-25T16:27:36.216Z,35.62
2023-05-25T16:30:02.754Z,36.14
2023-05-25T16:32:29.556Z,36.38
2023-05-25T16:34:56.265Z,36.34
2023-05-25T16:37:22.730Z,36.37
2023-05-25T16:39:49.168Z,36.60
2023-05-25T16:42:15.670Z,36.84
2023-05-25T16:44:42.089Z,37.29
2023-05-25T16:47:08.539Z,37.23
2023-05-25T16:49:34.944Z,37.22
2023-05-25T16:52:05.118Z,37.28
2023-05-25T16:54:31.643Z,37.28
2023-05-25T16:56:58.629Z,37.71
2023-05-25T16:59:25.038Z,37.81
2023-05-25T17:01:51.905Z,38.09
2023-05-25T17:04:18.437Z,38.82
2023-05-25T17:06:44.867Z,38.49
2023-05-25T17:09:11.901Z,38.51
2023-05-25T17:11:38.444Z,37.66
2023-05-25T17:14:04.921Z,37.43
2023-05-25T17:16:31.570Z,37.24
2023-05-25T17:18:58.136Z,37.50
2023-05-25T17:21:24.561Z,37.93
2023-05-25T17:23:50.992Z,38.01
2023-05-25T17:26:17.443Z,38.13
2023-05-25T17:28:44.120Z,38.53
2023-05-25T17:31:10.706Z,39.34
2023-05-25T17:33:38.720Z,38.74
2023-05-25T17:36:05.719Z,38.71
2023-05-25T17:38:34.291Z,38.72
2023-05-25T17:41:00.788Z,39.21
2023-05-25T17:43:27.751Z,39.52
2023-05-25T17:45:54.220Z,39.59
2023-05-25T17:48:20.725Z,39.50
2023-05-25T17:50:47.157Z,39.87
2023-05-25T17:53:13.716Z,40.18
2023-05-25T17:55:40.473Z,40.91
2023-05-25T17:58:07.395Z,40.84
2023-05-25T18:00:34.401Z,40.92
2023-05-25T18:03:01.034Z,40.97
2023-05-25T18:05:27.697Z,41.29
2023-05-25T18:07:54.142Z,42.06
2023-05-25T18:10:20.584Z,42.84
2023-05-25T18:12:49.119Z,42.00
2023-05-25T18:15:15.696Z,41.91
2023-05-25T18:17:42.264Z,41.84
2023-05-25T18:20:09.459Z,42.02
2023-05-25T18:22:36.340Z,41.74
2023-05-25T18:25:03.685Z,42.53
2023-05-25T18:27:30.161Z,43.11
2023-05-25T18:29:56.625Z,43.71
2023-05-25T18:32:23.609Z,43.21
2023-05-25T18:34:50.271Z,43.96
2023-05-25T18:37:16.782Z,44.52
2023-05-25T18:39:43.267Z,45.35
2023-05-25T18:42:09.686Z,45.40
2023-05-25T18:44:36.518Z,45.35
2023-05-25T18:47:02.954Z,45.69
2023-05-25T18:49:34.335Z,45.77
2023-05-25T18:52:01.483Z,46.30
2023-05-25T18:54:28.070Z,47.40
2023-05-25T18:56:55.444Z,46.93
2023-05-25T18:59:21.928Z,47.86
2023-05-25T19:01:48.394Z,48.33
2023-05-25T19:04:15.402Z,49.14
2023-05-25T19:06:41.893Z,49.47
2023-05-25T19:09:08.623Z,49.61
2023-05-25T19:11:35.192Z,50.21
2023-05-25T19:14:01.754Z,50.40
2023-05-25T19:16:28.253Z,50.74
2023-05-25T19:18:54.771Z,51.04
2023-05-25T19:21:21.193Z,51.90
2023-05-25T19:23:47.610Z,52.76
2023-05-25T19:26:14.321Z,53.55
2023-05-25T19:28:40.736Z,53.71
2023-05-25T19:31:07.223Z,54.40
2023-05-25T19:33:33.779Z,54.23
2023-05-25T19:36:00.224Z,53.57
2023-05-25T19:38:34.284Z,54.01
2023-05-25T19:41:07.289Z,54.23
2023-05-25T19:43:33.823Z,54.89
2023-05-25T19:46:00.312Z,54.31
2023-05-25T19:48:27.551Z,54.08
2023-05-25T19:50:54.355Z,54.46
2023-05-25T19:53:20.876Z,54.70
2023-05-25T19:55:47.305Z,55.13
2023-05-25T19:58:13.756Z,55.70
2023-05-25T20:00:40.332Z,56.38
2023-05-25T20:03:07.162Z,57.04
2023-05-25T20:05:33.711Z,57.24
2023-05-25T20:08:00.566Z,57.27
2023-05-25T20:10:27.054Z,57.42
2023-05-25T20:12:53.535Z,58.13
2023-05-25T20:15:20.043Z,57.50
2023-05-25T20:17:46.477Z,57.62
2023-05-25T20:20:13.085Z,58.21
2023-05-25T20:22:39.626Z,58.60
2023-05-25T20:25:06.592Z,58.91
2023-05-25T20:27:33.507Z,59.13
2023-05-25T20:29:59.934Z,59.49
2023-05-25T20:32:26.462Z,59.73
2023-05-25T20:34:52.917Z,59.66
2023-05-25T20:37:19.337Z,59.92
2023-05-25T20:39:45.802Z,59.89
2023-05-25T20:42:13.897Z,59.67
2023-05-25T20:44:40.443Z,59.60
2023-05-25T20:47:07.265Z,59.97
2023-05-25T20:49:33.692Z,60.28
2023-05-25T20:52:00.485Z,60.35
2023-05-25T20:54:27.029Z,60.83
2023-05-25T20:56:53.549Z,61.54
2023-05-25T20:59:20.088Z,61.45
2023-05-25T21:01:46.563Z,61.44
2023-05-25T21:04:13.055Z,61.76
2023-05-25T21:06:39.984Z,62.21
2023-05-25T21:09:06.518Z,62.15
2023-05-25T21:11:33.161Z,62.58
2023-05-25T21:13:59.615Z,63.00
2023-05-25T21:16:26.178Z,63.16
2023-05-25T21:18:52.598Z,63.19
2023-05-25T21:21:19.063Z,63.38
2023-05-25T21:23:45.556Z,63.51
2023-05-25T21:26:12.006Z,63.46
2023-05-25T21:28:38.460Z,63.86
2023-05-25T21:31:05.051Z,64.07
2023-05-25T21:33:35.616Z,64.30
2023-05-25T21:36:02.836Z,64.19
2023-05-25T21:38:29.572Z,64.60
2023-05-25T21:40:56.044Z,64.55
2023-05-25T21:43:22.522Z,64.91
2023-05-25T21:45:49.015Z,65.12
2023-05-25T21:48:15.477Z,65.41
2023-05-25T21:50:42.027Z,65.54
2023-05-25T21:53:08.445Z,65.69
2023-05-25T21:55:34.899Z,65.86
2023-05-25T21:58:01.352Z,66.15
2023-05-25T22:00:29.232Z,66.59
2023-05-25T22:02:56.163Z,66.57
2023-05-25T22:05:23.225Z,66.87
2023-05-25T22:07:49.705Z,67.31
2023-05-25T22:10:16.186Z,67.45
2023-05-25T22:12:42.656Z,67.51
2023-05-25T22:15:09.474Z,67.79
2023-05-25T22:17:36.014Z,67.80
2023-05-25T22:22:32.048Z,68.21
2023-05-25T22:24:58.521Z,68.61
2023-05-25T22:27:24.975Z,68.76
2023-05-25T22:29:51.726Z,68.93
2023-05-25T22:32:18.151Z,68.72
2023-05-25T22:34:44.631Z,69.00
2023-05-25T22:37:11.524Z,69.19
2023-05-25T22:39:37.965Z,69.37
2023-05-25T22:42:04.733Z,69.64
2023-05-25T22:44:31.169Z,69.93
2023-05-25T22:46:57.634Z,70.09
2023-05-25T22:49:24.066Z,70.49
2023-05-25T22:51:50.512Z,70.60
2023-05-25T22:54:19.245Z,70.82
2023-05-25T22:56:45.863Z,70.99
2023-05-25T22:59:13.146Z,70.94
2023-05-25T23:01:39.602Z,71.11
2023-05-25T23:04:06.268Z,70.98
2023-05-25T23:06:32.792Z,70.99
2023-05-25T23:08:59.262Z,71.38
2023-05-25T23:11:27.003Z,71.49
2023-05-25T23:13:54.622Z,71.92
2023-05-25T23:16:21.246Z,71.76
2023-05-25T23:18:47.742Z,72.04
2023-05-25T23:21:14.282Z,71.88
2023-05-25T23:23:41.194Z,71.56
2023-05-25T23:26:07.763Z,71.70
2023-05-25T23:28:34.401Z,71.95
2023-05-25T23:31:01.488Z,72.00
2023-05-25T23:33:29.112Z,72.01
2023-05-25T23:35:55.701Z,72.08
2023-05-25T23:38:22.220Z,72.04
2023-05-25T23:40:48.823Z,72.42
2023-05-25T23:43:16.242Z,72.19
2023-05-25T23:45:42.910Z,72.69
2023-05-25T23:48:09.604Z,73.05
2023-05-25T23:50:36.138Z,73.37
2023-05-25T23:53:02.555Z,74.43
2023-05-25T23:55:28.982Z,74.10
2023-05-25T23:57:55.392Z,74.07
